sensor_id;sensor_type;location;lat;lon;timestamp;P1;durP1;ratioP1;P2;durP2;ratioP2
19032;SDS011;9649;51.042;13.804;2023-02-18T00:06:27;7.10;;;1.60;;
19032;SDS011;9649;51.042;13.804;2023-02-18T00:12:04;3.97;;;1.50;;
19032;SDS011;9649;51.042;13.804;2023-02-18T00:17:27;7.57;;;1.60;;
19032;SDS011;9649;51.042;13.804;2023-02-18T00:23:01;7.67;;;1.60;;
19032;SDS011;9649;51.042;13.804;2023-02-18T00:28:38;4.13;;;1.70;;
19032;SDS011;9649;51.042;13.804;2023-02-18T00:34:04;6.73;;;1.97;;
19032;SDS011;9649;51.042;13.804;2023-02-18T00:39:51;8.10;;;1.63;;
19032;SDS011;9649;51.042;13.804;2023-02-18T00:45:37;5.97;;;1.30;;
19032;SDS011;9649;51.042;13.804;2023-02-18T00:51:07;4.67;;;1.27;;
19032;SDS011;9649;51.042;13.804;2023-02-18T01:02:11;5.03;;;1.67;;
19032;SDS011;9649;51.042;13.804;2023-02-18T01:08:08;4.67;;;1.70;;
19032;SDS011;9649;51.042;13.804;2023-02-18T01:19:49;7.30;;;1.77;;
19032;SDS011;9649;51.042;13.804;2023-02-18T01:25:47;5.47;;;1.57;;
19032;SDS011;9649;51.042;13.804;2023-02-18T01:31:17;8.57;;;1.50;;
19032;SDS011;9649;51.042;13.804;2023-02-18T01:42:26;4.77;;;1.90;;
19032;SDS011;9649;51.042;13.804;2023-02-18T01:47:51;6.97;;;1.70;;
19032;SDS011;9649;51.042;13.804;2023-02-18T01:59:06;4.73;;;1.63;;
19032;SDS011;9649;51.042;13.804;2023-02-18T02:04:40;8.30;;;1.70;;
19032;SDS011;9649;51.042;13.804;2023-02-18T02:22:11;7.87;;;1.90;;
19032;SDS011;9649;51.042;13.804;2023-02-18T02:28:12;7.93;;;1.73;;
19032;SDS011;9649;51.042;13.804;2023-02-18T02:39:50;5.43;;;1.43;;
19032;SDS011;9649;51.042;13.804;2023-02-18T02:45:20;4.07;;;1.57;;
19032;SDS011;9649;51.042;13.804;2023-02-18T02:50:46;5.50;;;1.40;;
19032;SDS011;9649;51.042;13.804;2023-02-18T02:56:25;9.13;;;1.70;;
19032;SDS011;9649;51.042;13.804;2023-02-18T03:02:00;7.63;;;1.60;;
19032;SDS011;9649;51.042;13.804;2023-02-18T03:07:53;8.27;;;1.30;;
19032;SDS011;9649;51.042;13.804;2023-02-18T03:13:50;7.83;;;1.87;;
19032;SDS011;9649;51.042;13.804;2023-02-18T03:19:44;5.57;;;1.30;;
19032;SDS011;9649;51.042;13.804;2023-02-18T03:25:08;8.37;;;1.20;;
19032;SDS011;9649;51.042;13.804;2023-02-18T03:30:49;6.10;;;1.50;;
19032;SDS011;9649;51.042;13.804;2023-02-18T03:36:18;5.70;;;1.40;;
19032;SDS011;9649;51.042;13.804;2023-02-18T03:42:00;4.37;;;1.37;;
19032;SDS011;9649;51.042;13.804;2023-02-18T03:47:17;7.87;;;2.23;;
19032;SDS011;9649;51.042;13.804;2023-02-18T03:53:35;8.00;;;1.50;;
19032;SDS011;9649;51.042;13.804;2023-02-18T03:59:26;6.20;;;1.40;;
19032;SDS011;9649;51.042;13.804;2023-02-18T04:04:50;9.20;;;2.00;;
19032;SDS011;9649;51.042;13.804;2023-02-18T04:10:26;8.60;;;1.60;;
19032;SDS011;9649;51.042;13.804;2023-02-18T04:16:01;4.40;;;1.30;;
19032;SDS011;9649;51.042;13.804;2023-02-18T04:21:28;9.50;;;1.53;;
19032;SDS011;9649;51.042;13.804;2023-02-18T04:26:54;8.57;;;1.57;;
19032;SDS011;9649;51.042;13.804;2023-02-18T04:32:29;8.67;;;1.33;;
19032;SDS011;9649;51.042;13.804;2023-02-18T04:37:58;8.00;;;1.67;;
19032;SDS011;9649;51.042;13.804;2023-02-18T04:43:45;3.43;;;1.20;;
19032;SDS011;9649;51.042;13.804;2023-02-18T04:55:39;9.97;;;1.90;;
19032;SDS011;9649;51.042;13.804;2023-02-18T05:01:10;5.90;;;1.77;;
19032;SDS011;9649;51.042;13.804;2023-02-18T05:07:12;8.63;;;2.00;;
19032;SDS011;9649;51.042;13.804;2023-02-18T05:12:54;8.27;;;2.60;;
19032;SDS011;9649;51.042;13.804;2023-02-18T05:18:51;9.40;;;2.50;;
19032;SDS011;9649;51.042;13.804;2023-02-18T05:25:01;7.07;;;2.50;;
19032;SDS011;9649;51.042;13.804;2023-02-18T05:37:07;11.30;;;2.63;;
19032;SDS011;9649;51.042;13.804;2023-02-18T06:00:43;7.93;;;3.10;;
19032;SDS011;9649;51.042;13.804;2023-02-18T06:12:45;15.23;;;3.63;;
19032;SDS011;9649;51.042;13.804;2023-02-18T06:24:44;11.23;;;3.80;;
19032;SDS011;9649;51.042;13.804;2023-02-18T06:30:15;11.87;;;4.53;;
19032;SDS011;9649;51.042;13.804;2023-02-18T06:48:25;13.73;;;4.23;;
19032;SDS011;9649;51.042;13.804;2023-02-18T06:54:21;11.53;;;4.33;;
19032;SDS011;9649;51.042;13.804;2023-02-18T06:59:53;12.90;;;4.70;;
19032;SDS011;9649;51.042;13.804;2023-02-18T07:05:42;10.73;;;4.60;;
19032;SDS011;9649;51.042;13.804;2023-02-18T07:11:23;13.57;;;5.00;;
19032;SDS011;9649;51.042;13.804;2023-02-18T07:17:14;12.03;;;4.70;;
19032;SDS011;9649;51.042;13.804;2023-02-18T07:22:26;9.67;;;4.87;;
19032;SDS011;9649;51.042;13.804;2023-02-18T07:28:30;13.57;;;5.40;;
19032;SDS011;9649;51.042;13.804;2023-02-18T07:34:23;14.27;;;6.60;;
19032;SDS011;9649;51.042;13.804;2023-02-18T07:39:38;16.00;;;8.47;;
19032;SDS011;9649;51.042;13.804;2023-02-18T07:45:29;16.67;;;9.23;;
19032;SDS011;9649;51.042;13.804;2023-02-18T08:10:38;16.40;;;7.80;;
19032;SDS011;9649;51.042;13.804;2023-02-18T08:23:26;12.70;;;7.40;;
19032;SDS011;9649;51.042;13.804;2023-02-18T08:35:36;12.27;;;7.93;;
19032;SDS011;9649;51.042;13.804;2023-02-18T08:41:07;17.47;;;8.93;;
19032;SDS011;9649;51.042;13.804;2023-02-18T08:46:12;16.37;;;9.30;;
19032;SDS011;9649;51.042;13.804;2023-02-18T08:51:25;14.00;;;8.43;;
19032;SDS011;9649;51.042;13.804;2023-02-18T08:56:28;14.43;;;8.87;;
19032;SDS011;9649;51.042;13.804;2023-02-18T09:01:33;15.73;;;8.20;;
19032;SDS011;9649;51.042;13.804;2023-02-18T09:06:39;14.33;;;8.40;;
19032;SDS011;9649;51.042;13.804;2023-02-18T09:11:42;13.73;;;8.93;;
19032;SDS011;9649;51.042;13.804;2023-02-18T09:16:46;16.80;;;8.90;;
19032;SDS011;9649;51.042;13.804;2023-02-18T09:21:50;15.27;;;8.80;;
19032;SDS011;9649;51.042;13.804;2023-02-18T09:26:53;16.00;;;8.73;;
19032;SDS011;9649;51.042;13.804;2023-02-18T09:32:00;21.13;;;9.87;;
19032;SDS011;9649;51.042;13.804;2023-02-18T09:37:06;19.40;;;10.90;;
19032;SDS011;9649;51.042;13.804;2023-02-18T09:42:10;18.17;;;9.87;;
19032;SDS011;9649;51.042;13.804;2023-02-18T09:47:22;15.97;;;9.43;;
19032;SDS011;9649;51.042;13.804;2023-02-18T09:52:32;16.03;;;9.20;;
19032;SDS011;9649;51.042;13.804;2023-02-18T09:57:40;20.20;;;9.43;;
19032;SDS011;9649;51.042;13.804;2023-02-18T10:02:52;15.33;;;8.47;;
19032;SDS011;9649;51.042;13.804;2023-02-18T10:07:57;14.70;;;8.70;;
19032;SDS011;9649;51.042;13.804;2023-02-18T10:13:03;14.00;;;8.10;;
19032;SDS011;9649;51.042;13.804;2023-02-18T10:18:16;9.40;;;5.17;;
19032;SDS011;9649;51.042;13.804;2023-02-18T10:23:26;3.40;;;2.43;;
19032;SDS011;9649;51.042;13.804;2023-02-18T10:28:34;1.33;;;0.97;;
19032;SDS011;9649;51.042;13.804;2023-02-18T10:33:44;1.50;;;1.40;;
19032;SDS011;9649;51.042;13.804;2023-02-18T10:38:59;1.43;;;0.83;;
19032;SDS011;9649;51.042;13.804;2023-02-18T10:44:10;0.70;;;0.70;;
19032;SDS011;9649;51.042;13.804;2023-02-18T10:49:29;0.93;;;0.83;;
19032;SDS011;9649;51.042;13.804;2023-02-18T10:54:49;0.77;;;0.70;;
19032;SDS011;9649;51.042;13.804;2023-02-18T10:59:55;3.23;;;0.90;;
19032;SDS011;9649;51.042;13.804;2023-02-18T11:05:05;0.60;;;0.60;;
19032;SDS011;9649;51.042;13.804;2023-02-18T11:10:21;0.70;;;0.70;;
19032;SDS011;9649;51.042;13.804;2023-02-18T11:15:27;2.17;;;0.50;;
19032;SDS011;9649;51.042;13.804;2023-02-18T11:20:36;2.00;;;0.60;;
19032;SDS011;9649;51.042;13.804;2023-02-18T11:25:51;0.60;;;0.60;;
19032;SDS011;9649;51.042;13.804;2023-02-18T11:31:00;1.10;;;0.90;;
19032;SDS011;9649;51.042;13.804;2023-02-18T11:36:12;1.03;;;0.50;;
19032;SDS011;9649;51.042;13.804;2023-02-18T11:41:21;0.63;;;0.50;;
19032;SDS011;9649;51.042;13.804;2023-02-18T11:46:32;5.43;;;0.60;;
19032;SDS011;9649;51.042;13.804;2023-02-18T11:51:36;0.40;;;0.40;;
19032;SDS011;9649;51.042;13.804;2023-02-18T11:56:41;0.60;;;0.40;;
19032;SDS011;9649;51.042;13.804;2023-02-18T12:01:58;0.60;;;0.50;;
19032;SDS011;9649;51.042;13.804;2023-02-18T12:07:11;0.50;;;0.47;;
19032;SDS011;9649;51.042;13.804;2023-02-18T12:12:23;1.20;;;0.70;;
19032;SDS011;9649;51.042;13.804;2023-02-18T12:17:39;1.00;;;0.57;;
19032;SDS011;9649;51.042;13.804;2023-02-18T12:22:59;0.90;;;0.80;;
19032;SDS011;9649;51.042;13.804;2023-02-18T12:28:11;0.80;;;0.70;;
19032;SDS011;9649;51.042;13.804;2023-02-18T12:33:32;1.13;;;0.90;;
19032;SDS011;9649;51.042;13.804;2023-02-18T12:38:54;1.63;;;0.70;;
19032;SDS011;9649;51.042;13.804;2023-02-18T12:44:10;1.30;;;1.10;;
19032;SDS011;9649;51.042;13.804;2023-02-18T12:49:47;0.90;;;0.90;;
19032;SDS011;9649;51.042;13.804;2023-02-18T12:55:26;1.67;;;1.10;;
19032;SDS011;9649;51.042;13.804;2023-02-18T13:06:14;1.40;;;1.10;;
19032;SDS011;9649;51.042;13.804;2023-02-18T13:11:29;1.77;;;1.10;;
19032;SDS011;9649;51.042;13.804;2023-02-18T13:16:38;2.77;;;1.10;;
19032;SDS011;9649;51.042;13.804;2023-02-18T13:21:45;1.23;;;1.13;;
19032;SDS011;9649;51.042;13.804;2023-02-18T13:26:51;1.03;;;0.90;;
19032;SDS011;9649;51.042;13.804;2023-02-18T13:32:00;1.10;;;0.90;;
19032;SDS011;9649;51.042;13.804;2023-02-18T13:37:14;1.50;;;0.70;;
19032;SDS011;9649;51.042;13.804;2023-02-18T13:42:36;0.80;;;0.80;;
19032;SDS011;9649;51.042;13.804;2023-02-18T13:47:39;0.77;;;0.77;;
19032;SDS011;9649;51.042;13.804;2023-02-18T13:52:44;1.83;;;0.80;;
19032;SDS011;9649;51.042;13.804;2023-02-18T13:57:51;1.20;;;0.90;;
19032;SDS011;9649;51.042;13.804;2023-02-18T14:02:59;1.73;;;1.10;;
19032;SDS011;9649;51.042;13.804;2023-02-18T14:08:11;1.40;;;0.80;;
19032;SDS011;9649;51.042;13.804;2023-02-18T14:13:36;0.93;;;0.80;;
19032;SDS011;9649;51.042;13.804;2023-02-18T14:18:54;0.60;;;0.60;;
19032;SDS011;9649;51.042;13.804;2023-02-18T14:23:59;1.03;;;0.70;;
19032;SDS011;9649;51.042;13.804;2023-02-18T14:29:12;1.40;;;0.73;;
19032;SDS011;9649;51.042;13.804;2023-02-18T14:34:31;0.87;;;0.60;;
19032;SDS011;9649;51.042;13.804;2023-02-18T14:39:54;0.97;;;0.83;;
19032;SDS011;9649;51.042;13.804;2023-02-18T14:45:14;0.87;;;0.60;;
19032;SDS011;9649;51.042;13.804;2023-02-18T14:50:29;1.20;;;0.70;;
19032;SDS011;9649;51.042;13.804;2023-02-18T14:55:38;1.80;;;0.87;;
19032;SDS011;9649;51.042;13.804;2023-02-18T15:00:46;1.27;;;0.70;;
19032;SDS011;9649;51.042;13.804;2023-02-18T15:05:49;1.10;;;0.70;;
19032;SDS011;9649;51.042;13.804;2023-02-18T15:10:52;0.90;;;0.77;;
19032;SDS011;9649;51.042;13.804;2023-02-18T15:16:03;1.10;;;0.80;;
19032;SDS011;9649;51.042;13.804;2023-02-18T15:21:14;4.83;;;0.87;;
19032;SDS011;9649;51.042;13.804;2023-02-18T15:26:20;1.03;;;0.93;;
19032;SDS011;9649;51.042;13.804;2023-02-18T15:31:25;2.93;;;0.80;;
19032;SDS011;9649;51.042;13.804;2023-02-18T15:36:32;1.73;;;0.70;;
19032;SDS011;9649;51.042;13.804;2023-02-18T15:41:34;1.73;;;0.70;;
19032;SDS011;9649;51.042;13.804;2023-02-18T15:46:39;0.97;;;0.63;;
19032;SDS011;9649;51.042;13.804;2023-02-18T15:51:41;0.93;;;0.60;;
19032;SDS011;9649;51.042;13.804;2023-02-18T15:56:45;2.03;;;0.73;;
19032;SDS011;9649;51.042;13.804;2023-02-18T16:01:54;3.33;;;0.50;;
19032;SDS011;9649;51.042;13.804;2023-02-18T16:07:00;3.43;;;0.50;;
19032;SDS011;9649;51.042;13.804;2023-02-18T16:12:20;0.80;;;0.40;;
19032;SDS011;9649;51.042;13.804;2023-02-18T16:17:30;0.87;;;0.63;;
19032;SDS011;9649;51.042;13.804;2023-02-18T16:22:35;1.00;;;0.53;;
19032;SDS011;9649;51.042;13.804;2023-02-18T16:27:46;0.63;;;0.50;;
19032;SDS011;9649;51.042;13.804;2023-02-18T16:32:53;1.73;;;0.43;;
19032;SDS011;9649;51.042;13.804;2023-02-18T16:37:58;0.83;;;0.50;;
19032;SDS011;9649;51.042;13.804;2023-02-18T16:43:02;0.87;;;0.50;;
19032;SDS011;9649;51.042;13.804;2023-02-18T16:48:14;0.43;;;0.43;;
19032;SDS011;9649;51.042;13.804;2023-02-18T16:53:30;0.40;;;0.40;;
19032;SDS011;9649;51.042;13.804;2023-02-18T16:58:32;0.40;;;0.40;;
19032;SDS011;9649;51.042;13.804;2023-02-18T17:03:38;3.30;;;0.40;;
19032;SDS011;9649;51.042;13.804;2023-02-18T17:08:44;0.60;;;0.53;;
19032;SDS011;9649;51.042;13.804;2023-02-18T17:13:51;0.77;;;0.50;;
19032;SDS011;9649;51.042;13.804;2023-02-18T17:19:00;3.17;;;0.60;;
19032;SDS011;9649;51.042;13.804;2023-02-18T17:24:03;1.57;;;0.57;;
19032;SDS011;9649;51.042;13.804;2023-02-18T17:29:07;0.80;;;0.60;;
19032;SDS011;9649;51.042;13.804;2023-02-18T17:34:14;2.63;;;0.60;;
19032;SDS011;9649;51.042;13.804;2023-02-18T17:39:28;1.00;;;0.63;;
19032;SDS011;9649;51.042;13.804;2023-02-18T17:44:31;1.43;;;0.70;;
19032;SDS011;9649;51.042;13.804;2023-02-18T17:49:35;2.17;;;1.07;;
19032;SDS011;9649;51.042;13.804;2023-02-18T17:54:38;1.07;;;0.97;;
19032;SDS011;9649;51.042;13.804;2023-02-18T17:59:43;3.50;;;2.10;;
19032;SDS011;9649;51.042;13.804;2023-02-18T18:04:47;1.40;;;0.70;;
19032;SDS011;9649;51.042;13.804;2023-02-18T18:09:50;0.87;;;0.73;;
19032;SDS011;9649;51.042;13.804;2023-02-18T18:14:53;1.33;;;0.90;;
19032;SDS011;9649;51.042;13.804;2023-02-18T18:19:57;0.83;;;0.73;;
19032;SDS011;9649;51.042;13.804;2023-02-18T18:24:59;1.30;;;0.60;;
19032;SDS011;9649;51.042;13.804;2023-02-18T18:30:05;4.97;;;0.87;;
19032;SDS011;9649;51.042;13.804;2023-02-18T18:35:14;2.23;;;0.80;;
19032;SDS011;9649;51.042;13.804;2023-02-18T18:40:24;1.20;;;0.70;;
19032;SDS011;9649;51.042;13.804;2023-02-18T18:45:29;2.53;;;1.10;;
19032;SDS011;9649;51.042;13.804;2023-02-18T18:50:36;1.40;;;1.10;;
19032;SDS011;9649;51.042;13.804;2023-02-18T18:55:43;1.80;;;1.27;;
19032;SDS011;9649;51.042;13.804;2023-02-18T19:00:48;3.03;;;1.17;;
19032;SDS011;9649;51.042;13.804;2023-02-18T19:05:53;1.30;;;1.00;;
19032;SDS011;9649;51.042;13.804;2023-02-18T19:10:56;6.00;;;1.00;;
19032;SDS011;9649;51.042;13.804;2023-02-18T19:16:00;3.07;;;1.10;;
19032;SDS011;9649;51.042;13.804;2023-02-18T19:21:10;2.17;;;1.20;;
19032;SDS011;9649;51.042;13.804;2023-02-18T19:26:13;2.77;;;1.10;;
19032;SDS011;9649;51.042;13.804;2023-02-18T19:36:38;1.10;;;0.90;;
19032;SDS011;9649;51.042;13.804;2023-02-18T19:42:02;1.83;;;1.20;;
19032;SDS011;9649;51.042;13.804;2023-02-18T23:01:50;6.07;;;3.10;;
19032;SDS011;9649;51.042;13.804;2023-02-18T23:06:54;5.50;;;3.27;;
19032;SDS011;9649;51.042;13.804;2023-02-18T23:11:59;4.47;;;3.03;;
19032;SDS011;9649;51.042;13.804;2023-02-18T23:17:02;5.87;;;3.10;;
19032;SDS011;9649;51.042;13.804;2023-02-18T23:22:15;5.77;;;3.20;;
19032;SDS011;9649;51.042;13.804;2023-02-18T23:27:20;6.07;;;3.17;;
19032;SDS011;9649;51.042;13.804;2023-02-18T23:32:24;7.03;;;2.80;;
19032;SDS011;9649;51.042;13.804;2023-02-18T23:37:27;3.27;;;2.23;;
19032;SDS011;9649;51.042;13.804;2023-02-18T23:42:49;5.23;;;2.47;;
19032;SDS011;9649;51.042;13.804;2023-02-18T23:47:53;5.40;;;2.97;;
19032;SDS011;9649;51.042;13.804;2023-02-18T23:52:56;4.27;;;2.40;;
19032;SDS011;9649;51.042;13.804;2023-02-18T23:58:00;7.70;;;2.97;;
